Terminal Aerodrome Forecast
Issued by NWS Green Bay, WI

Home | Current Version | Previous Version | Graphics & Text | Print | Product List | Glossary On
Versions: 1 2 3 4 5 6 7 8 9 10 11 12 13 14 15 16 17 18 19 20 21 22 23 24 25 26 27 28 29 30 31 32 33 34 35 36
064
FTUS43 KGRB 170129 AAA
TAFGRB
TAF AMD
KGRB 170129Z 1701/1724 05007KT 3SM -FZRA BR SCT025 OVC035
     FM170300 06004KT 3SM -FZRA BR OVC024
     FM170600 03009KT 1 1/2SM -FZRA BR OVC006
     FM171500 01009KT 2SM -FZRA BR OVC010
     FM171900 33007KT P6SM BKN030=

USA.gov is the U.S. government's official web portal to all federal, state and local government web resources and services.